Time;durP1;ratioP1;P1;durP2;ratioP2;P2;SDS_P1;SDS_P2;PMS_P1;PMS_P2;Temp;Humidity;BMP_temperature;BMP_pressure;BME280_temperature;BME280_humidity;BME280_pressure;Samples;Min_cycle;Max_cycle;Signal;HPM_P1;HPM_P2
2023/09/21 04:56:18;;;;;;;5.90;2.97;;;16.00;99.90;;;;;;5129871;28;20223;-90
2023/09/21 04:58:46;;;;;;;4.13;3.00;;;16.00;99.90;;;;;;5097813;28;20213;-94
2023/09/21 05:01:12;;;;;;;5.63;3.27;;;16.00;99.90;;;;;;5113097;28;20204;-93
2023/09/21 05:03:39;;;;;;;3.03;2.80;;;15.80;99.90;;;;;;5112582;28;20247;-94
2023/09/21 05:06:05;;;;;;;4.87;3.53;;;15.80;99.90;;;;;;5113376;28;20190;-93
2023/09/21 05:08:35;;;;;;;4.27;3.27;;;15.80;99.90;;;;;;5100379;28;20181;-89
2023/09/21 05:11:03;;;;;;;3.57;3.00;;;15.80;99.90;;;;;;5096804;28;20192;-89
2023/09/21 05:13:29;;;;;;;3.50;3.20;;;15.80;99.90;;;;;;5079395;28;20177;-94
2023/09/21 05:15:55;;;;;;;5.97;3.30;;;15.80;99.90;;;;;;5083848;28;20204;-95
2023/09/21 05:18:22;;;;;;;3.73;3.37;;;15.80;99.90;;;;;;5083760;28;20176;-94
2023/09/21 05:20:49;;;;;;;4.90;3.13;;;15.90;99.90;;;;;;5084729;28;20281;-93
2023/09/21 05:23:15;;;;;;;3.33;3.03;;;15.90;99.90;;;;;;5081860;28;20177;-93
2023/09/21 05:25:44;;;;;;;5.03;3.10;;;15.90;99.90;;;;;;5098101;28;20181;-95
2023/09/21 05:28:11;;;;;;;4.20;3.10;;;15.90;99.90;;;;;;5079938;28;20177;-85
2023/09/21 05:30:38;;;;;;;4.80;3.57;;;15.90;99.90;;;;;;5098079;28;20179;-94
2023/09/21 05:33:05;;;;;;;3.57;3.20;;;15.90;99.90;;;;;;5082703;28;20180;-94
2023/09/21 05:35:31;;;;;;;4.47;3.10;;;15.90;99.90;;;;;;5082764;28;20164;-94
2023/09/21 05:41:46;;;;;;;5.97;3.00;;;15.90;99.90;;;;;;5126106;22;20227;-32
2023/09/21 05:44:12;;;;;;;5.27;2.83;;;15.90;99.90;;;;;;5052467;28;20266;-31
2023/09/21 05:46:39;;;;;;;4.00;3.13;;;15.90;99.90;;;;;;5067873;28;20185;-39
2023/09/21 05:49:07;;;;;;;5.57;3.20;;;15.90;99.90;;;;;;5048900;28;20222;-39
2023/09/21 05:51:39;;;;;;;4.03;3.50;;;15.90;99.90;;;;;;5044566;28;20181;-41
2023/09/21 05:54:09;;;;;;;3.13;2.83;;;16.00;99.90;;;;;;5036011;28;20177;-48
2023/09/21 05:56:35;;;;;;;3.47;3.13;;;16.00;99.90;;;;;;5037810;28;20205;-39
2023/09/21 05:59:03;;;;;;;8.80;3.37;;;16.10;99.90;;;;;;5036811;28;20204;-41
2023/09/21 06:01:32;;;;;;;3.70;3.17;;;16.10;99.90;;;;;;5041503;28;20181;-40
2023/09/21 06:03:59;;;;;;;4.90;3.40;;;16.20;99.90;;;;;;5037187;28;20182;-40
2023/09/21 06:06:28;;;;;;;5.30;3.50;;;16.20;99.90;;;;;;5034706;28;20221;-40
2023/09/21 06:08:57;;;;;;;6.13;4.07;;;16.20;99.90;;;;;;5035230;28;20205;-39
2023/09/21 06:11:26;;;;;;;3.53;3.13;;;16.20;99.90;;;;;;5035709;28;20243;-41
2023/09/21 06:13:56;;;;;;;4.43;3.27;;;16.20;99.90;;;;;;5041873;28;20189;-39
2023/09/21 06:16:23;;;;;;;3.33;3.03;;;16.20;99.90;;;;;;5042313;28;20228;-38
2023/09/21 06:18:49;;;;;;;6.37;3.17;;;16.20;99.90;;;;;;5031033;28;20205;-40
2023/09/21 06:21:16;;;;;;;4.83;3.20;;;16.20;99.90;;;;;;5033644;28;20191;-41
2023/09/21 06:23:44;;;;;;;4.07;3.67;;;16.20;99.90;;;;;;5023934;28;20178;-42
2023/09/21 06:26:14;;;;;;;4.53;3.42;;;16.20;99.90;;;;;;5026530;28;20214;-41
2023/09/21 06:28:47;;;;;;;4.07;3.40;;;16.20;99.90;;;;;;5031899;28;20291;-40
2023/09/21 06:31:13;;;;;;;4.33;3.40;;;16.30;99.90;;;;;;5034179;28;20207;-40
2023/09/21 06:33:40;;;;;;;5.35;3.47;;;16.30;99.90;;;;;;5038650;28;20190;-42
2023/09/21 06:36:20;;;;;;;5.23;3.23;;;16.40;99.90;;;;;;5039674;28;20219;-40
2023/09/21 06:38:47;;;;;;;5.20;3.65;;;16.50;99.90;;;;;;5037790;28;20205;-40
2023/09/21 06:41:13;;;;;;;4.00;3.50;;;16.60;99.90;;;;;;5053736;28;20283;-38
2023/09/21 06:43:44;;;;;;;4.40;3.25;;;16.70;99.90;;;;;;5036732;28;20188;-40
2023/09/21 06:46:15;;;;;;;5.30;3.10;;;16.70;99.90;;;;;;5050829;28;20177;-38
2023/09/21 06:48:48;;;;;;;4.43;3.30;;;16.70;99.90;;;;;;5040733;28;20220;-39
2023/09/21 06:51:19;;;;;;;4.10;3.30;;;16.80;99.90;;;;;;5038874;28;20237;-42
2023/09/21 06:53:48;;;;;;;3.35;2.92;;;16.90;99.90;;;;;;5049695;28;20255;-39
2023/09/21 06:56:14;;;;;;;5.97;3.53;;;16.90;99.90;;;;;;5046950;28;20213;-40
2023/09/21 06:58:42;;;;;;;3.78;3.40;;;16.90;99.90;;;;;;5043174;28;20203;-42
2023/09/21 07:01:09;;;;;;;5.03;3.20;;;17.00;99.90;;;;;;5038964;28;20203;-40
2023/09/21 07:03:37;;;;;;;3.38;3.08;;;17.00;99.90;;;;;;5044642;28;20180;-40
2023/09/21 07:06:05;;;;;;;4.78;3.30;;;17.10;99.90;;;;;;5045998;28;20201;-39
2023/09/21 07:08:32;;;;;;;3.88;3.17;;;17.20;99.90;;;;;;5042359;28;20211;-40
2023/09/21 07:11:00;;;;;;;5.15;3.33;;;17.20;99.90;;;;;;5042295;28;20270;-38
2023/09/21 07:13:29;;;;;;;3.47;3.05;;;17.20;99.90;;;;;;5035750;28;20193;-37
2023/09/21 07:15:59;;;;;;;6.05;3.40;;;17.30;99.90;;;;;;5062383;28;20266;-40
2023/09/21 07:18:26;;;;;;;3.50;3.20;;;17.30;99.90;;;;;;5046492;28;20264;-38
2023/09/21 07:20:54;;;;;;;4.00;3.22;;;17.40;99.90;;;;;;5044681;28;20664;-40
2023/09/21 07:23:21;;;;;;;6.05;2.97;;;17.40;99.90;;;;;;5043464;28;20192;-41
2023/09/21 07:25:53;;;;;;;4.80;3.40;;;17.40;99.90;;;;;;5034676;28;20241;-43
2023/09/21 07:28:22;;;;;;;5.28;3.30;;;17.50;99.90;;;;;;5042914;28;20212;-39
2023/09/21 07:30:52;;;;;;;4.07;3.08;;;17.50;99.90;;;;;;5044463;28;20763;-42
2023/09/21 07:33:21;;;;;;;5.05;3.25;;;17.50;99.90;;;;;;5044927;28;20181;-39
2023/09/21 07:35:50;;;;;;;4.38;3.38;;;17.50;99.90;;;;;;5045845;28;20176;-42
2023/09/21 07:38:18;;;;;;;3.60;3.20;;;17.60;99.90;;;;;;5041583;28;20740;-41
2023/09/21 07:40:44;;;;;;;5.78;3.58;;;17.70;99.90;;;;;;5056170;28;20184;-39
2023/09/21 07:43:17;;;;;;;8.77;3.42;;;17.70;99.90;;;;;;5044725;28;20181;-38
2023/09/21 07:45:47;;;;;;;7.85;3.35;;;17.80;99.90;;;;;;5060103;28;20184;-42
2023/09/21 07:48:16;;;;;;;5.18;3.33;;;17.90;99.90;;;;;;5040383;28;20193;-40
2023/09/21 07:50:42;;;;;;;3.70;2.88;;;17.90;99.90;;;;;;5041071;28;20181;-42
2023/09/21 07:53:09;;;;;;;5.28;3.50;;;18.00;99.90;;;;;;5063931;28;21236;-40
2023/09/21 07:55:35;;;;;;;4.85;3.40;;;18.10;99.90;;;;;;5038505;28;20557;-38
2023/09/21 07:58:01;;;;;;;4.55;3.28;;;18.10;99.90;;;;;;5039128;28;20213;-41
2023/09/21 08:00:27;;;;;;;4.30;3.47;;;18.20;99.90;;;;;;5046701;28;20189;-40
2023/09/21 08:02:55;;;;;;;7.32;3.35;;;18.30;99.90;;;;;;5042209;28;20188;-41
2023/09/21 08:05:21;;;;;;;4.47;3.30;;;18.40;99.90;;;;;;5042060;28;20188;-42
2023/09/21 08:07:49;;;;;;;3.38;3.08;;;18.40;99.90;;;;;;5044083;28;20231;-40
2023/09/21 08:10:15;;;;;;;3.80;3.08;;;18.50;99.90;;;;;;5042692;28;20180;-41
2023/09/21 08:12:41;;;;;;;5.45;3.20;;;18.60;99.90;;;;;;5040857;28;20181;-40
2023/09/21 08:15:11;;;;;;;3.63;3.10;;;18.70;99.90;;;;;;5042021;28;20182;-38
2023/09/21 08:17:37;;;;;;;4.60;2.75;;;18.70;99.90;;;;;;5042432;28;20213;-40
2023/09/21 08:20:10;;;;;;;4.15;3.00;;;18.80;99.90;;;;;;5042537;28;20177;-39
2023/09/21 08:22:37;;;;;;;2.60;2.40;;;18.90;99.90;;;;;;5042970;28;20173;-38
2023/09/21 08:25:04;;;;;;;3.63;2.88;;;19.10;99.90;;;;;;5048063;28;20209;-40
2023/09/21 08:27:31;;;;;;;2.97;2.58;;;19.30;99.90;;;;;;5046872;28;20188;-39
2023/09/21 08:29:57;;;;;;;3.00;2.60;;;19.50;99.90;;;;;;5048448;28;20181;-39
2023/09/21 08:32:25;;;;;;;3.13;2.53;;;19.60;99.90;;;;;;5052375;28;20224;-39
2023/09/21 08:34:51;;;;;;;4.63;3.00;;;19.80;99.90;;;;;;5046656;28;20196;-40
2023/09/21 08:37:17;;;;;;;4.10;2.78;;;19.80;99.90;;;;;;5045019;28;20217;-40
2023/09/21 08:39:44;;;;;;;3.03;2.78;;;19.80;99.90;;;;;;5042423;28;20185;-38
2023/09/21 08:42:10;;;;;;;4.03;3.08;;;19.90;99.90;;;;;;5045472;28;20199;-39
2023/09/21 08:44:43;;;;;;;3.90;3.20;;;20.00;99.90;;;;;;5045597;28;20178;-41
2023/09/21 08:47:14;;;;;;;3.75;3.00;;;20.10;99.90;;;;;;5058383;28;20181;-41
2023/09/21 08:49:47;;;;;;;3.65;2.95;;;20.20;99.90;;;;;;5042851;28;20182;-40
2023/09/21 08:52:13;;;;;;;3.20;2.90;;;20.40;99.90;;;;;;5047084;28;20186;-37
2023/09/21 08:54:42;;;;;;;4.20;2.67;;;20.60;99.90;;;;;;5037957;28;20187;-39
2023/09/21 08:57:16;;;;;;;4.93;2.72;;;20.80;99.90;;;;;;5053611;28;20267;-38
2023/09/21 08:59:48;;;;;;;3.33;2.40;;;20.90;99.90;;;;;;5044084;28;20191;-42
2023/09/21 09:02:17;;;;;;;4.00;2.30;;;21.10;99.90;;;;;;5026141;28;20192;-39
2023/09/21 09:04:46;;;;;;;2.55;2.33;;;21.20;99.90;;;;;;5058104;28;20196;-38
2023/09/21 09:07:13;;;;;;;3.95;2.40;;;21.30;99.90;;;;;;5042751;28;20271;-39
2023/09/21 09:09:41;;;;;;;3.67;2.30;;;21.40;99.90;;;;;;5026067;28;20192;-40
2023/09/21 09:12:21;;;;;;;3.08;2.38;;;21.40;99.90;;;;;;5067220;28;20551;-39
2023/09/21 09:14:57;;;;;;;2.45;2.10;;;21.50;99.90;;;;;;5059820;28;20181;-38
2023/09/21 09:17:31;;;;;;;2.60;2.40;;;21.60;99.90;;;;;;5043400;28;20216;-38
2023/09/21 09:20:19;;;;;;;2.70;2.50;;;21.70;99.90;;;;;;5062502;28;20185;-39
2023/09/21 09:22:54;;;;;;;4.22;2.47;;;21.90;99.90;;;;;;5042805;28;20265;-40
2023/09/21 09:25:31;;;;;;;2.40;2.20;;;22.10;99.90;;;;;;5066152;28;20226;-43
2023/09/21 09:28:01;;;;;;;3.80;2.67;;;22.20;99.90;;;;;;5061349;28;20750;-42
2023/09/21 09:30:30;;;;;;;3.15;2.38;;;22.30;99.90;;;;;;5061934;28;20249;-42
2023/09/21 09:32:57;;;;;;;3.90;2.38;;;22.40;99.90;;;;;;5043871;28;20176;-42
2023/09/21 09:35:24;;;;;;;2.67;2.35;;;22.40;99.90;;;;;;5053137;28;20274;-42
2023/09/21 09:37:50;;;;;;;2.72;2.38;;;22.40;99.90;;;;;;5047752;28;20208;-42
2023/09/21 09:40:23;;;;;;;2.45;2.25;;;22.50;99.90;;;;;;5047457;28;20238;-43
2023/09/21 09:42:53;;;;;;;3.20;2.90;;;22.60;99.90;;;;;;5045353;28;20650;-42
2023/09/21 09:45:25;;;;;;;2.67;2.47;;;22.60;99.90;;;;;;5035866;28;20178;-43
2023/09/21 09:47:56;;;;;;;2.85;2.50;;;22.60;99.90;;;;;;5045247;28;20205;-42
2023/09/21 09:50:24;;;;;;;3.17;2.70;;;22.60;99.90;;;;;;5034632;28;20186;-42
2023/09/21 09:53:05;;;;;;;3.35;2.63;;;22.70;99.90;;;;;;5067031;28;20173;-42
2023/09/21 09:55:33;;;;;;;6.18;2.45;;;22.90;99.90;;;;;;5043339;28;20195;-42
2023/09/21 09:58:03;;;;;;;4.28;2.10;;;23.00;99.90;;;;;;5055913;28;20215;-42
2023/09/21 10:00:31;;;;;;;3.80;2.13;;;23.20;99.90;;;;;;5061378;28;20173;-42
2023/09/21 10:02:58;;;;;;;3.05;2.20;;;23.30;99.90;;;;;;5079943;28;20169;-42
2023/09/21 10:05:26;;;;;;;3.67;2.28;;;23.50;99.90;;;;;;5058816;28;20185;-42
2023/09/21 10:07:54;;;;;;;2.30;2.10;;;23.50;99.90;;;;;;5045645;28;20205;-42
2023/09/21 10:10:22;;;;;;;2.92;2.05;;;23.60;99.90;;;;;;5061432;28;20201;-41
2023/09/21 10:12:51;;;;;;;2.28;2.08;;;23.50;99.90;;;;;;5059700;28;20190;-42
2023/09/21 10:15:23;;;;;;;3.63;2.40;;;23.60;99.90;;;;;;5059217;28;20181;-42
2023/09/21 10:17:54;;;;;;;3.50;2.08;;;23.50;99.90;;;;;;5063042;28;20251;-42
2023/09/21 10:20:32;;;;;;;3.65;2.30;;;23.60;99.90;;;;;;5077046;28;20192;-42
2023/09/21 10:23:09;;;;;;;3.95;2.30;;;23.70;99.90;;;;;;5045859;28;20226;-40
2023/09/21 10:25:39;;;;;;;3.90;2.47;;;24.00;99.90;;;;;;5061824;28;20204;-42
2023/09/21 10:28:29;;;;;;;2.25;1.95;;;24.30;99.90;;;;;;5046448;28;20257;-43
2023/09/21 10:31:08;;;;;;;2.72;2.20;;;24.50;99.90;;;;;;5034772;28;20200;-42
2023/09/21 10:34:03;;;;;;;2.13;1.92;;;24.70;99.90;;;;;;5061649;28;20334;-40
2023/09/21 10:36:31;;;;;;;2.90;2.15;;;25.10;99.90;;;;;;5043281;28;20248;-39
2023/09/21 10:39:06;;;;;;;3.83;2.20;;;25.50;99.90;;;;;;5051719;28;20666;-40
2023/09/21 10:41:33;;;;;;;2.22;2.03;;;25.80;99.90;;;;;;5077047;28;20183;-42
2023/09/21 10:44:02;;;;;;;1.73;1.60;;;26.00;99.90;;;;;;5040861;28;20173;-42
2023/09/21 10:46:33;;;;;;;3.00;2.13;;;26.00;99.90;;;;;;5052298;28;20181;-42
2023/09/21 10:49:05;;;;;;;1.65;1.55;;;25.90;99.90;;;;;;5031746;28;20210;-39
2023/09/21 10:51:41;;;;;;;2.20;1.67;;;25.70;99.90;;;;;;5030354;28;20220;-41
2023/09/21 10:54:07;;;;;;;2.25;1.65;;;25.70;99.90;;;;;;5029114;28;20212;-42
2023/09/21 10:56:34;;;;;;;3.45;1.85;;;25.70;99.90;;;;;;5052084;28;20239;-42
2023/09/21 10:59:00;;;;;;;2.17;1.98;;;25.60;99.90;;;;;;5030086;28;20212;-42
2023/09/21 11:01:26;;;;;;;1.85;1.70;;;25.50;99.90;;;;;;5046424;28;20173;-41
2023/09/21 11:03:53;;;;;;;2.40;2.20;;;25.50;99.90;;;;;;5030028;28;20192;-42
2023/09/21 11:06:21;;;;;;;3.15;2.00;;;25.50;99.90;;;;;;5027845;28;20247;-42
2023/09/21 11:08:48;;;;;;;4.07;2.20;;;25.50;99.90;;;;;;5036770;28;20200;-42
2023/09/21 11:11:15;;;;;;;2.05;1.85;;;25.50;99.90;;;;;;5033690;28;20185;-42
2023/09/21 11:13:41;;;;;;;2.00;1.90;;;25.40;99.90;;;;;;5035684;28;20189;-41
2023/09/21 11:16:09;;;;;;;2.88;1.90;;;25.40;99.90;;;;;;5049124;28;20212;-42
2023/09/21 11:18:36;;;;;;;2.67;1.58;;;25.50;99.90;;;;;;5049118;28;20288;-42
2023/09/21 11:21:05;;;;;;;2.60;2.20;;;25.60;99.90;;;;;;5043929;28;20278;-42
2023/09/21 11:23:33;;;;;;;2.42;1.88;;;25.60;99.90;;;;;;5032659;28;20189;-41
2023/09/21 11:26:00;;;;;;;1.77;1.60;;;25.60;99.90;;;;;;5030566;28;20202;-42
2023/09/21 11:28:27;;;;;;;2.38;1.90;;;25.60;99.90;;;;;;5044234;28;20670;-41
2023/09/21 11:30:56;;;;;;;1.88;1.60;;;25.70;99.90;;;;;;5042119;28;20199;-39
2023/09/21 11:33:27;;;;;;;2.00;1.90;;;25.70;99.90;;;;;;5040267;28;20178;-42
2023/09/21 11:35:54;;;;;;;20.60;18.60;;;25.80;99.90;;;;;;5046282;28;20189;-40
2023/09/21 11:38:20;;;;;;;5.32;4.75;;;25.90;99.90;;;;;;5065997;28;20681;-42
2023/09/21 11:40:50;;;;;;;13.77;9.82;;;26.10;99.90;;;;;;5043276;28;20190;-40
2023/09/21 11:43:20;;;;;;;4.80;3.10;;;26.30;99.90;;;;;;5028260;28;20181;-41
2023/09/21 11:45:47;;;;;;;2.45;1.95;;;26.50;99.90;;;;;;5035089;28;20299;-42
2023/09/21 11:48:15;;;;;;;2.50;1.90;;;26.70;99.90;;;;;;5043317;28;20201;-41
2023/09/21 11:50:44;;;;;;;2.85;1.88;;;26.70;99.90;;;;;;5059264;28;20230;-42
2023/09/21 11:53:12;;;;;;;2.17;1.70;;;26.90;99.90;;;;;;5044632;28;20180;-42
2023/09/21 11:55:38;;;;;;;1.98;1.77;;;27.00;99.90;;;;;;5038689;28;20185;-41
2023/09/21 11:58:15;;;;;;;2.53;1.95;;;27.10;99.90;;;;;;5028438;28;20223;-41
2023/09/21 12:00:43;;;;;;;6.72;4.63;;;27.30;99.90;;;;;;5047228;28;20197;-40
2023/09/21 12:03:21;;;;;;;3.08;2.42;;;27.30;99.90;;;;;;5043145;28;20227;-40
2023/09/21 12:05:47;;;;;;;2.63;2.42;;;26.90;99.90;;;;;;5033788;28;20208;-42
2023/09/21 12:08:21;;;;;;;6.13;5.20;;;26.80;99.90;;;;;;5028228;28;20571;-41
2023/09/21 12:10:52;;;;;;;3.45;1.95;;;26.50;99.90;;;;;;5065750;28;20212;-41
2023/09/21 12:13:21;;;;;;;5.20;3.58;;;26.60;99.90;;;;;;5046736;28;20197;-42
2023/09/21 12:15:56;;;;;;;3.70;2.53;;;26.60;99.90;;;;;;5035700;28;20170;-42
2023/09/21 12:18:28;;;;;;;2.20;2.00;;;26.50;99.90;;;;;;5046493;28;20227;-42
2023/09/21 12:21:00;;;;;;;52.35;41.65;;;26.50;99.90;;;;;;5048301;28;20181;-42
2023/09/21 12:23:31;;;;;;;15.02;12.48;;;26.60;99.90;;;;;;5047233;28;20173;-42
2023/09/21 12:25:57;;;;;;;5.35;4.28;;;26.60;99.90;;;;;;5051173;28;20177;-42
2023/09/21 12:28:25;;;;;;;2.85;2.25;;;26.80;99.90;;;;;;5028453;28;20212;-42
2023/09/21 12:30:52;;;;;;;5.10;2.90;;;27.10;99.90;;;;;;5070317;28;20177;-42
2023/09/21 12:33:19;;;;;;;2.50;2.10;;;27.50;99.90;;;;;;5040210;28;20185;-42
2023/09/21 12:35:45;;;;;;;3.47;2.50;;;27.60;99.90;;;;;;5048866;28;20240;-42
2023/09/21 12:38:11;;;;;;;3.03;1.83;;;27.70;99.90;;;;;;5072783;28;20217;-42
2023/09/21 12:40:38;;;;;;;2.47;1.73;;;27.80;99.90;;;;;;5053886;28;20241;-42
2023/09/21 12:43:09;;;;;;;2.45;2.05;;;27.90;99.90;;;;;;5051732;28;20196;-42
2023/09/21 12:45:37;;;;;;;5.05;1.83;;;27.70;99.90;;;;;;5057081;28;20185;-40
2023/09/21 12:48:07;;;;;;;2.78;1.70;;;27.50;99.90;;;;;;5058494;28;20216;-39
2023/09/21 12:50:33;;;;;;;3.88;1.77;;;27.50;99.90;;;;;;5031506;28;20264;-42
2023/09/21 12:53:00;;;;;;;4.45;1.63;;;27.50;99.90;;;;;;5056558;28;20178;-42
2023/09/21 12:55:25;;;;;;;2.35;1.80;;;27.50;99.90;;;;;;5048483;28;20272;-38
2023/09/21 12:57:51;;;;;;;3.88;2.35;;;27.50;99.90;;;;;;5056798;28;20216;-38
2023/09/21 13:00:22;;;;;;;3.28;2.17;;;27.40;99.90;;;;;;5056048;28;20184;-41
2023/09/21 13:02:50;;;;;;;1.85;1.75;;;27.30;99.90;;;;;;5072263;28;20200;-41
2023/09/21 13:05:17;;;;;;;2.25;1.70;;;27.10;99.90;;;;;;5042862;28;20182;-40
2023/09/21 13:07:45;;;;;;;3.75;1.85;;;27.20;99.90;;;;;;5052375;28;20287;-37
2023/09/21 13:10:18;;;;;;;2.05;1.92;;;27.30;99.90;;;;;;5035843;28;20273;-40
2023/09/21 13:12:44;;;;;;;2.75;1.90;;;27.30;99.90;;;;;;5042848;28;20240;-42
2023/09/21 13:15:10;;;;;;;2.55;1.85;;;27.40;99.90;;;;;;5035035;28;20186;-40
2023/09/21 13:17:38;;;;;;;2.65;2.00;;;27.60;99.90;;;;;;5027046;28;20224;-40
2023/09/21 13:20:06;;;;;;;3.55;1.98;;;27.80;99.90;;;;;;5047271;28;20205;-41
2023/09/21 13:22:51;;;;;;;2.53;2.10;;;28.10;99.90;;;;;;5056490;28;20200;-41
2023/09/21 13:25:19;;;;;;;2.60;1.85;;;28.20;99.90;;;;;;5044055;28;20232;-40
2023/09/21 13:27:46;;;;;;;2.50;1.98;;;28.50;99.90;;;;;;5026019;28;20198;-39
2023/09/21 13:30:13;;;;;;;2.40;1.80;;;28.70;99.90;;;;;;5044806;28;20192;-42
2023/09/21 13:32:41;;;;;;;1.70;1.52;;;28.60;99.90;;;;;;5043928;28;20193;-41
2023/09/21 13:35:08;;;;;;;2.35;1.80;;;28.90;99.90;;;;;;5063750;28;20242;-40
2023/09/21 13:37:35;;;;;;;2.80;1.92;;;29.20;99.90;;;;;;5045444;28;20205;-41
2023/09/21 13:40:02;;;;;;;2.38;1.95;;;29.50;99.90;;;;;;5041054;28;20238;-41
2023/09/21 13:42:28;;;;;;;2.65;1.75;;;29.60;99.90;;;;;;5035531;28;20204;-41
2023/09/21 13:44:54;;;;;;;2.25;1.80;;;29.80;99.90;;;;;;5044191;28;20185;-39
2023/09/21 13:47:20;;;;;;;3.25;1.83;;;29.80;99.90;;;;;;5062397;28;20222;-40
2023/09/21 13:49:46;;;;;;;4.07;1.92;;;29.60;99.90;;;;;;5032897;28;20194;-40
2023/09/21 13:52:15;;;;;;;2.38;1.63;;;29.50;99.90;;;;;;5071669;28;20192;-41
2023/09/21 13:54:42;;;;;;;3.22;1.80;;;29.20;99.90;;;;;;5036944;28;20185;-42
2023/09/21 13:57:08;;;;;;;2.20;2.00;;;28.70;99.90;;;;;;5054371;28;20224;-40
2023/09/21 13:59:35;;;;;;;2.38;1.75;;;28.50;99.90;;;;;;5037698;28;20201;-41
2023/09/21 14:02:02;;;;;;;2.85;1.88;;;28.40;99.90;;;;;;5037468;28;20264;-42
2023/09/21 14:04:28;;;;;;;2.70;1.90;;;28.40;99.90;;;;;;5037671;28;20192;-42
2023/09/21 14:06:54;;;;;;;1.90;1.70;;;28.30;99.90;;;;;;5037702;28;20189;-41
2023/09/21 14:09:19;;;;;;;4.25;2.08;;;28.30;99.90;;;;;;5045584;28;20196;-42
2023/09/21 14:11:45;;;;;;;3.08;1.80;;;28.40;99.90;;;;;;5048950;28;20201;-42
2023/09/21 14:14:11;;;;;;;3.33;2.00;;;28.40;99.90;;;;;;5029527;28;20657;-42
2023/09/21 14:16:37;;;;;;;2.88;1.70;;;28.40;99.90;;;;;;5041931;28;20205;-42
2023/09/21 14:19:03;;;;;;;4.25;2.10;;;28.10;99.90;;;;;;5036997;28;20229;-42
2023/09/21 14:21:29;;;;;;;2.70;2.03;;;28.00;99.90;;;;;;5037170;28;20548;-41
2023/09/21 14:23:57;;;;;;;2.65;1.90;;;27.80;99.90;;;;;;5068419;28;20178;-41
2023/09/21 14:26:28;;;;;;;3.30;2.00;;;27.70;99.90;;;;;;5064695;28;20201;-42
2023/09/21 14:29:09;;;;;;;2.63;1.80;;;27.70;99.90;;;;;;5067300;28;20205;-42
2023/09/21 14:31:35;;;;;;;2.53;1.92;;;27.70;99.90;;;;;;5059317;28;20174;-41
2023/09/21 14:34:04;;;;;;;1.90;1.80;;;27.80;99.90;;;;;;5057706;28;20182;-41
2023/09/21 14:36:45;;;;;;;2.17;1.85;;;28.00;99.90;;;;;;5077501;28;20200;-42
2023/09/21 14:39:13;;;;;;;3.95;2.10;;;28.30;99.90;;;;;;5043083;28;20688;-41
2023/09/21 14:41:41;;;;;;;2.08;1.88;;;28.40;99.90;;;;;;5062643;28;20249;-42
2023/09/21 14:44:08;;;;;;;3.13;1.92;;;28.40;99.90;;;;;;5075367;28;20220;-42
2023/09/21 14:46:38;;;;;;;3.05;1.80;;;28.20;99.90;;;;;;5059690;28;20168;-42
2023/09/21 14:49:05;;;;;;;2.65;2.10;;;28.10;99.90;;;;;;5060098;28;20207;-42
2023/09/21 14:51:31;;;;;;;3.30;2.00;;;27.80;99.90;;;;;;5043915;28;20177;-42
2023/09/21 14:53:58;;;;;;;4.35;1.90;;;27.70;99.90;;;;;;5055990;28;20177;-41
2023/09/21 14:56:24;;;;;;;3.08;2.00;;;27.50;99.90;;;;;;5055594;28;20200;-42
2023/09/21 14:58:53;;;;;;;2.47;2.03;;;27.40;99.90;;;;;;5068924;28;20716;-41
2023/09/21 15:01:20;;;;;;;2.28;1.92;;;27.40;99.90;;;;;;5058790;28;20181;-42
2023/09/21 15:03:46;;;;;;;2.88;2.00;;;27.20;99.90;;;;;;5040929;28;20173;-42
2023/09/21 15:06:12;;;;;;;2.20;2.00;;;27.10;99.90;;;;;;5058019;28;20188;-41
2023/09/21 15:08:38;;;;;;;3.72;2.10;;;26.90;99.90;;;;;;5033128;28;20304;-42
2023/09/21 15:11:04;;;;;;;4.00;2.20;;;26.90;99.90;;;;;;5044139;28;20669;-42
2023/09/21 15:13:31;;;;;;;3.08;2.45;;;26.80;99.90;;;;;;5044366;28;20180;-42
2023/09/21 15:15:57;;;;;;;3.17;2.60;;;26.70;99.90;;;;;;5047178;28;20187;-41
2023/09/21 15:18:24;;;;;;;4.22;3.08;;;26.60;99.90;;;;;;5060886;28;20205;-42
2023/09/21 15:20:52;;;;;;;4.50;2.35;;;26.50;99.90;;;;;;5062208;28;20200;-42
2023/09/21 15:23:32;;;;;;;2.75;2.13;;;26.40;99.90;;;;;;5062546;28;20199;-39
2023/09/21 15:26:01;;;;;;;3.20;2.30;;;26.40;99.90;;;;;;5054660;28;20271;-41
2023/09/21 15:28:27;;;;;;;2.70;2.20;;;26.30;99.90;;;;;;5045646;28;20197;-41
2023/09/21 15:30:54;;;;;;;3.92;2.20;;;26.20;99.90;;;;;;5072508;28;20181;-41
2023/09/21 15:33:22;;;;;;;3.75;1.90;;;26.10;99.90;;;;;;5070675;28;20322;-41
2023/09/21 15:35:55;;;;;;;2.42;2.00;;;26.00;99.90;;;;;;5053124;28;20177;-41
2023/09/21 15:38:24;;;;;;;6.47;2.60;;;26.00;99.90;;;;;;5057659;28;20204;-41
2023/09/21 15:40:51;;;;;;;2.72;2.10;;;25.90;99.90;;;;;;5041800;28;20185;-42
2023/09/21 15:43:24;;;;;;;4.18;3.13;;;25.80;99.90;;;;;;5060217;28;20188;-41
2023/09/21 15:45:57;;;;;;;3.72;2.38;;;25.80;99.90;;;;;;5043191;28;20230;-42
2023/09/21 15:48:31;;;;;;;2.83;2.38;;;25.80;99.90;;;;;;5052847;28;20196;-40
2023/09/21 15:51:04;;;;;;;4.38;1.95;;;25.70;99.90;;;;;;5074600;28;20260;-41
2023/09/21 15:53:33;;;;;;;2.10;1.90;;;25.70;99.90;;;;;;5053892;28;20282;-41
2023/09/21 15:56:01;;;;;;;1.92;1.45;;;25.70;99.90;;;;;;5071545;28;20177;-42
2023/09/21 15:58:29;;;;;;;2.83;1.60;;;25.60;99.90;;;;;;5059334;28;20209;-41
2023/09/21 16:00:55;;;;;;;2.67;1.70;;;25.50;99.90;;;;;;5058523;28;20189;-40
2023/09/21 16:03:21;;;;;;;1.92;1.40;;;25.40;99.90;;;;;;5055673;28;20182;-42
2023/09/21 16:05:47;;;;;;;2.63;1.70;;;25.40;99.90;;;;;;5040750;28;20190;-41
2023/09/21 16:08:16;;;;;;;2.70;1.88;;;25.30;99.90;;;;;;5057907;28;20193;-41
2023/09/21 16:10:44;;;;;;;2.28;1.48;;;25.20;99.90;;;;;;5053970;28;20181;-41
2023/09/21 16:13:10;;;;;;;1.98;1.77;;;25.10;99.90;;;;;;5050685;28;20234;-41
2023/09/21 16:15:39;;;;;;;1.67;1.58;;;25.10;99.90;;;;;;5035189;28;20191;-41
2023/09/21 16:18:07;;;;;;;2.78;1.70;;;25.00;99.90;;;;;;5040824;28;20209;-42
2023/09/21 16:20:37;;;;;;;2.42;1.50;;;24.90;99.90;;;;;;5058271;28;20177;-41
2023/09/21 16:23:04;;;;;;;2.22;1.65;;;24.80;99.90;;;;;;5039219;28;20194;-42
2023/09/21 16:25:31;;;;;;;3.22;2.05;;;24.70;99.90;;;;;;5056498;28;20197;-41
2023/09/21 16:27:57;;;;;;;3.92;2.72;;;24.60;99.90;;;;;;5044241;28;20289;-41
2023/09/21 16:30:23;;;;;;;5.57;3.67;;;24.50;99.90;;;;;;5055026;28;20273;-38
2023/09/21 16:32:52;;;;;;;6.25;4.50;;;24.50;99.90;;;;;;5076716;28;20180;-41
2023/09/21 16:35:18;;;;;;;5.65;3.88;;;24.40;99.90;;;;;;5043906;28;20210;-42
2023/09/21 16:37:44;;;;;;;6.25;4.25;;;24.30;99.90;;;;;;5044921;28;20244;-42
2023/09/21 16:40:11;;;;;;;5.10;4.13;;;24.20;99.90;;;;;;5042575;28;20184;-41
2023/09/21 16:42:37;;;;;;;6.18;4.47;;;24.10;99.90;;;;;;5041424;28;20195;-41
2023/09/21 16:45:06;;;;;;;4.07;3.15;;;24.10;99.90;;;;;;5062423;28;20178;-41
2023/09/21 16:47:38;;;;;;;4.38;3.45;;;24.10;99.90;;;;;;5052241;28;20192;-40
2023/09/21 16:50:05;;;;;;;6.50;2.60;;;24.00;99.90;;;;;;5043864;28;20291;-41
2023/09/21 16:52:31;;;;;;;5.38;2.67;;;23.90;99.90;;;;;;5045043;28;20187;-41
2023/09/21 16:54:56;;;;;;;3.45;2.22;;;23.90;99.90;;;;;;5040442;28;20186;-40
2023/09/21 16:57:30;;;;;;;4.68;2.20;;;23.90;99.90;;;;;;5057418;28;20232;-36
2023/09/21 16:59:59;;;;;;;5.85;1.98;;;23.90;99.90;;;;;;5048105;28;20204;-38
2023/09/21 17:02:27;;;;;;;6.32;2.00;;;23.90;99.90;;;;;;5045303;28;20189;-41
2023/09/21 17:04:53;;;;;;;7.38;2.00;;;23.90;99.90;;;;;;5036414;28;20663;-39
2023/09/21 17:07:20;;;;;;;5.80;1.83;;;23.80;99.90;;;;;;5054981;28;20181;-40
2023/09/21 17:09:46;;;;;;;4.00;2.00;;;23.80;99.90;;;;;;5038061;28;20188;-38
2023/09/21 17:12:12;;;;;;;4.85;1.50;;;23.80;99.90;;;;;;5052261;28;20198;-40
2023/09/21 17:14:37;;;;;;;5.05;1.70;;;23.70;99.90;;;;;;5037785;28;20196;-41
2023/09/21 17:17:03;;;;;;;4.53;1.83;;;23.60;99.90;;;;;;5038228;28;20213;-42
2023/09/21 17:19:30;;;;;;;4.32;1.95;;;23.50;99.90;;;;;;5034955;28;20212;-40
2023/09/21 17:21:56;;;;;;;3.03;1.70;;;23.50;99.90;;;;;;5034358;28;20210;-42
2023/09/21 17:24:23;;;;;;;4.63;1.80;;;23.50;99.90;;;;;;5038634;28;20189;-42
2023/09/21 17:26:50;;;;;;;4.75;1.65;;;23.40;99.90;;;;;;5039486;28;20190;-42
2023/09/21 17:29:16;;;;;;;2.60;1.63;;;23.30;99.90;;;;;;5031280;28;20213;-40
2023/09/21 17:31:42;;;;;;;3.10;1.60;;;23.20;99.90;;;;;;5036018;28;20181;-40
2023/09/21 17:34:09;;;;;;;3.72;1.85;;;23.10;99.90;;;;;;5047047;28;20191;-41
2023/09/21 17:36:36;;;;;;;3.65;2.70;;;23.00;99.90;;;;;;5045149;28;20247;-40
2023/09/21 17:39:03;;;;;;;3.30;2.97;;;23.00;99.90;;;;;;5054196;28;20294;-39
2023/09/21 17:41:29;;;;;;;3.83;3.17;;;22.90;99.90;;;;;;5040712;28;20323;-40
2023/09/21 17:43:55;;;;;;;4.45;2.67;;;22.90;99.90;;;;;;5035496;28;20268;-41
2023/09/21 17:46:23;;;;;;;3.35;2.60;;;22.80;99.90;;;;;;5037184;28;20184;-41
2023/09/21 17:48:49;;;;;;;2.83;2.58;;;22.70;99.90;;;;;;5054404;28;20201;-40
2023/09/21 17:51:15;;;;;;;3.13;2.13;;;22.70;99.90;;;;;;5037831;28;20192;-40